Time;durP1;ratioP1;P1;durP2;ratioP2;P2;SDS_P1;SDS_P2;PMS_P1;PMS_P2;Temp;Humidity;BMP_temperature;BMP_pressure;BME280_temperature;BME280_humidity;BME280_pressure;Samples;Min_cycle;Max_cycle;Signal;HPM_P1;HPM_P2
2021/11/19 00:02:12;;;;;;;10.80;7.45;;;;;;;;;;4942367;28;20055;-71
2021/11/19 00:04:43;;;;;;;12.75;6.57;;;;;;;;;;4969688;28;20759;-72
2021/11/19 00:07:14;;;;;;;10.02;6.57;;;;;;;;;;4969735;28;20495;-70
2021/11/19 00:09:47;;;;;;;14.52;7.20;;;;;;;;;;4954563;28;20059;-72
2021/11/19 00:12:18;;;;;;;12.05;7.13;;;;;;;;;;4931260;29;20056;-71
2021/11/19 00:14:49;;;;;;;11.07;6.65;;;;;;;;;;4912094;29;20055;-71
2021/11/19 00:17:20;;;;;;;12.00;7.07;;;;;;;;;;4876614;29;20060;-72
2021/11/19 00:19:50;;;;;;;12.68;7.25;;;;;;;;;;4931343;29;20590;-73
2021/11/19 00:22:21;;;;;;;13.07;6.95;;;;;;;;;;4866619;29;20064;-70
2021/11/19 00:24:53;;;;;;;11.20;6.68;;;;;;;;;;4874782;29;20060;-71
2021/11/19 00:27:23;;;;;;;13.98;6.70;;;;;;;;;;4856104;29;20092;-70
2021/11/19 00:29:53;;;;;;;12.25;7.50;;;;;;;;;;4856031;29;20069;-70
2021/11/19 00:32:25;;;;;;;11.98;6.85;;;;;;;;;;4856135;29;20062;-70
2021/11/19 00:34:56;;;;;;;12.30;6.82;;;;;;;;;;4874606;29;20064;-70
2021/11/19 00:37:27;;;;;;;14.35;6.80;;;;;;;;;;4885076;29;20056;-70
2021/11/19 00:39:58;;;;;;;11.30;7.32;;;;;;;;;;4892866;29;20044;-70
2021/11/19 00:42:28;;;;;;;12.30;6.85;;;;;;;;;;4895320;29;20057;-71
2021/11/19 00:44:59;;;;;;;11.88;6.55;;;;;;;;;;4860074;29;20060;-71
2021/11/19 00:47:29;;;;;;;11.13;6.32;;;;;;;;;;4881334;29;20085;-70
2021/11/19 00:50:02;;;;;;;11.52;6.53;;;;;;;;;;4887349;29;20076;-70
2021/11/19 00:52:32;;;;;;;11.77;6.72;;;;;;;;;;4887130;29;20051;-72
2021/11/19 00:55:05;;;;;;;11.88;6.63;;;;;;;;;;4877729;29;20537;-72
2021/11/19 00:57:36;;;;;;;11.10;6.65;;;;;;;;;;4896272;29;20060;-73
2021/11/19 01:00:11;;;;;;;13.38;6.88;;;;;;;;;;4892180;29;20056;-72
2021/11/19 01:02:47;;;;;;;12.25;6.68;;;;;;;;;;4896119;29;20052;-72
2021/11/19 01:05:18;;;;;;;14.98;6.95;;;;;;;;;;4888913;29;20069;-73
2021/11/19 01:07:49;;;;;;;10.63;6.65;;;;;;;;;;4911737;29;20060;-72
2021/11/19 01:10:24;;;;;;;10.80;6.75;;;;;;;;;;4884471;29;21120;-71
2021/11/19 01:12:56;;;;;;;10.55;6.32;;;;;;;;;;4892272;29;20052;-73
2021/11/19 01:15:34;;;;;;;13.52;6.60;;;;;;;;;;4933767;29;20055;-72
2021/11/19 01:18:13;;;;;;;11.18;6.25;;;;;;;;;;4921459;29;20536;-72
2021/11/19 01:20:50;;;;;;;10.93;7.20;;;;;;;;;;4914668;29;20432;-73
2021/11/19 01:23:24;;;;;;;10.02;6.70;;;;;;;;;;4915362;29;20056;-70
2021/11/19 01:26:02;;;;;;;12.30;7.07;;;;;;;;;;4915130;29;20060;-71
2021/11/19 01:28:33;;;;;;;14.32;7.25;;;;;;;;;;4914971;29;20056;-72
2021/11/19 01:31:07;;;;;;;15.93;6.75;;;;;;;;;;4899156;29;20112;-71
2021/11/19 01:33:39;;;;;;;10.23;6.75;;;;;;;;;;4880185;29;20055;-71
2021/11/19 01:36:28;;;;;;;12.98;7.10;;;;;;;;;;4914826;29;20052;-70
2021/11/19 01:39:21;;;;;;;12.90;6.90;;;;;;;;;;4914496;29;20071;-70
2021/11/19 01:42:28;;;;;;;13.73;6.45;;;;;;;;;;4933947;29;20950;-70
2021/11/19 01:45:11;;;;;;;10.25;6.88;;;;;;;;;;4928416;29;20056;-70
2021/11/19 01:47:51;;;;;;;9.85;6.57;;;;;;;;;;4925976;29;20519;-71
2021/11/19 01:50:31;;;;;;;12.25;7.57;;;;;;;;;;4906431;29;20060;-71
2021/11/19 01:53:16;;;;;;;13.38;6.78;;;;;;;;;;4881738;29;20056;-71
2021/11/19 01:55:56;;;;;;;12.85;8.30;;;;;;;;;;4952239;29;20051;-71
2021/11/19 01:58:36;;;;;;;14.70;7.72;;;;;;;;;;4941803;29;20512;-70
2021/11/19 02:01:13;;;;;;;12.27;6.65;;;;;;;;;;4933599;29;20068;-70
2021/11/19 02:03:47;;;;;;;13.63;7.00;;;;;;;;;;4952065;29;20062;-70
2021/11/19 02:06:22;;;;;;;13.23;7.03;;;;;;;;;;4932781;29;20058;-70
2021/11/19 02:09:01;;;;;;;10.98;6.97;;;;;;;;;;4932939;29;20066;-70
2021/11/19 02:12:13;;;;;;;11.85;6.57;;;;;;;;;;4931425;29;20141;-71
2021/11/19 02:15:07;;;;;;;11.75;7.05;;;;;;;;;;4932703;29;20052;-70
2021/11/19 02:17:43;;;;;;;12.50;7.78;;;;;;;;;;4933113;29;20056;-71
2021/11/19 02:20:20;;;;;;;12.50;7.15;;;;;;;;;;4932790;29;20096;-70
2021/11/19 02:22:57;;;;;;;12.13;7.93;;;;;;;;;;4933079;29;20063;-70
2021/11/19 02:25:32;;;;;;;13.70;6.90;;;;;;;;;;4909198;29;20446;-71
2021/11/19 02:28:09;;;;;;;11.57;7.43;;;;;;;;;;4900777;29;20453;-71
2021/11/19 02:30:54;;;;;;;11.57;7.60;;;;;;;;;;4895028;29;20177;-71
2021/11/19 02:33:27;;;;;;;10.75;6.95;;;;;;;;;;4894583;29;20383;-71
2021/11/19 02:36:10;;;;;;;14.73;7.57;;;;;;;;;;4845241;29;20064;-71
2021/11/19 02:38:49;;;;;;;12.70;7.32;;;;;;;;;;4876206;29;20060;-72
2021/11/19 02:41:24;;;;;;;12.40;6.70;;;;;;;;;;4845277;29;20053;-71
2021/11/19 02:44:02;;;;;;;12.27;7.65;;;;;;;;;;4876233;29;20060;-71
2021/11/19 02:46:39;;;;;;;14.68;7.78;;;;;;;;;;4884103;29;20079;-72
2021/11/19 02:49:10;;;;;;;11.85;7.32;;;;;;;;;;4894353;29;20044;-71
2021/11/19 02:51:41;;;;;;;11.13;7.13;;;;;;;;;;4898406;29;20052;-71
2021/11/19 02:54:19;;;;;;;12.23;6.93;;;;;;;;;;4931837;29;20489;-71
2021/11/19 02:56:52;;;;;;;13.45;6.82;;;;;;;;;;4949165;29;20551;-71
2021/11/19 02:59:25;;;;;;;14.88;7.45;;;;;;;;;;4913414;29;20056;-72
2021/11/19 03:02:02;;;;;;;13.02;7.22;;;;;;;;;;4951131;29;20062;-72
2021/11/19 03:04:40;;;;;;;13.82;7.75;;;;;;;;;;4950212;28;20055;-71
2021/11/19 03:07:11;;;;;;;12.65;6.97;;;;;;;;;;4950926;29;20055;-71
2021/11/19 03:09:47;;;;;;;15.85;7.15;;;;;;;;;;4951200;29;20055;-71
2021/11/19 03:12:22;;;;;;;15.43;7.07;;;;;;;;;;4950925;29;20059;-71
2021/11/19 03:14:56;;;;;;;13.43;7.32;;;;;;;;;;4884557;29;20172;-72
2021/11/19 03:17:27;;;;;;;15.65;7.50;;;;;;;;;;4932246;29;20062;-70
2021/11/19 03:19:58;;;;;;;11.85;7.28;;;;;;;;;;4893620;29;20052;-71
2021/11/19 03:22:31;;;;;;;12.85;7.72;;;;;;;;;;4874963;29;20068;-71
2021/11/19 03:25:05;;;;;;;10.13;6.57;;;;;;;;;;4862161;29;20050;-72
2021/11/19 03:27:36;;;;;;;15.75;7.35;;;;;;;;;;4837878;29;20054;-72
2021/11/19 03:30:20;;;;;;;10.88;7.20;;;;;;;;;;4842326;29;20050;-70
2021/11/19 03:32:52;;;;;;;19.50;6.97;;;;;;;;;;4840319;29;20054;-71
2021/11/19 03:35:25;;;;;;;14.00;7.35;;;;;;;;;;4859517;29;20068;-71
2021/11/19 03:37:58;;;;;;;12.45;6.75;;;;;;;;;;4874997;29;20057;-71
2021/11/19 03:40:35;;;;;;;10.95;6.93;;;;;;;;;;4840497;29;20061;-71
2021/11/19 03:43:11;;;;;;;13.68;7.25;;;;;;;;;;4856281;29;20061;-71
2021/11/19 03:45:51;;;;;;;13.20;6.63;;;;;;;;;;4872387;29;20048;-71
2021/11/19 03:48:23;;;;;;;12.38;7.05;;;;;;;;;;4875059;29;20056;-71
2021/11/19 03:51:01;;;;;;;12.85;7.13;;;;;;;;;;4875179;29;20060;-71
2021/11/19 03:53:34;;;;;;;10.88;6.97;;;;;;;;;;4857844;29;20050;-72
2021/11/19 03:56:05;;;;;;;15.07;7.45;;;;;;;;;;4893048;29;20525;-71
2021/11/19 03:58:39;;;;;;;9.85;6.35;;;;;;;;;;4876550;29;20072;-71
2021/11/19 04:01:23;;;;;;;10.68;6.18;;;;;;;;;;4874905;29;20053;-71
2021/11/19 04:04:01;;;;;;;13.10;7.00;;;;;;;;;;4870549;29;20065;-72
2021/11/19 04:06:34;;;;;;;14.48;6.20;;;;;;;;;;4852501;29;20454;-71
2021/11/19 04:09:05;;;;;;;12.40;6.20;;;;;;;;;;4873474;29;20057;-71
2021/11/19 04:11:37;;;;;;;13.13;6.07;;;;;;;;;;4855842;29;20061;-71
2021/11/19 04:14:10;;;;;;;12.07;6.53;;;;;;;;;;4837488;29;20060;-70
2021/11/19 04:16:52;;;;;;;11.85;5.93;;;;;;;;;;4786819;29;20059;-71
2021/11/19 04:19:25;;;;;;;16.50;6.30;;;;;;;;;;4805073;29;20058;-72
2021/11/19 04:22:04;;;;;;;10.25;6.45;;;;;;;;;;4804677;29;20055;-71
2021/11/19 04:24:54;;;;;;;12.63;6.47;;;;;;;;;;4822904;29;20054;-72
2021/11/19 04:27:24;;;;;;;13.48;6.10;;;;;;;;;;4837652;29;20050;-73
2021/11/19 04:30:32;;;;;;;13.95;6.35;;;;;;;;;;4820360;29;20058;-71
2021/11/19 04:33:03;;;;;;;11.02;6.35;;;;;;;;;;4823040;29;20065;-71
2021/11/19 04:35:35;;;;;;;11.00;6.07;;;;;;;;;;4822224;29;20101;-71
2021/11/19 04:38:05;;;;;;;10.98;6.75;;;;;;;;;;4840968;29;20060;-71
2021/11/19 04:40:36;;;;;;;12.82;6.85;;;;;;;;;;4839602;29;20053;-72
2021/11/19 04:43:08;;;;;;;14.65;6.97;;;;;;;;;;4841349;29;20415;-71
2021/11/19 04:45:40;;;;;;;12.27;7.20;;;;;;;;;;4859332;29;20074;-71
2021/11/19 04:48:11;;;;;;;11.70;6.28;;;;;;;;;;4802406;29;20061;-71
2021/11/19 04:50:45;;;;;;;12.55;6.60;;;;;;;;;;4859062;29;20053;-70
2021/11/19 04:53:19;;;;;;;13.63;6.32;;;;;;;;;;4819711;29;20047;-69
2021/11/19 04:55:53;;;;;;;13.63;7.20;;;;;;;;;;4821707;29;20061;-70
2021/11/19 04:58:24;;;;;;;14.80;7.15;;;;;;;;;;4822239;29;20541;-71
2021/11/19 05:00:59;;;;;;;14.23;7.75;;;;;;;;;;4822483;29;20063;-69
2021/11/19 05:03:33;;;;;;;14.85;7.65;;;;;;;;;;4792847;29;20054;-70
2021/11/19 05:06:04;;;;;;;11.98;7.45;;;;;;;;;;4859770;29;20052;-70
2021/11/19 05:08:36;;;;;;;12.05;7.32;;;;;;;;;;4877538;29;20503;-70
2021/11/19 05:11:09;;;;;;;15.77;7.72;;;;;;;;;;4877592;29;20434;-70
2021/11/19 05:13:40;;;;;;;16.52;7.18;;;;;;;;;;4852993;29;20054;-70
2021/11/19 05:16:15;;;;;;;18.45;8.25;;;;;;;;;;4800297;29;20051;-71
2021/11/19 05:18:46;;;;;;;12.48;8.02;;;;;;;;;;4791619;29;20067;-72
2021/11/19 05:21:19;;;;;;;13.48;7.80;;;;;;;;;;4818285;29;20055;-70
2021/11/19 05:23:51;;;;;;;18.02;8.48;;;;;;;;;;4836985;29;20050;-70
2021/11/19 05:26:22;;;;;;;15.70;7.57;;;;;;;;;;4821921;29;20059;-70
2021/11/19 05:28:53;;;;;;;13.63;7.45;;;;;;;;;;4821746;29;20062;-70
2021/11/19 05:31:24;;;;;;;17.50;7.43;;;;;;;;;;4834488;29;20057;-70
2021/11/19 05:33:55;;;;;;;18.83;7.97;;;;;;;;;;4895046;29;20051;-71
2021/11/19 05:36:27;;;;;;;12.85;7.88;;;;;;;;;;4907578;29;20056;-70
2021/11/19 05:38:58;;;;;;;13.27;7.55;;;;;;;;;;4914527;29;20083;-70
2021/11/19 05:41:36;;;;;;;13.48;7.97;;;;;;;;;;4918721;29;20056;-70
2021/11/19 05:44:08;;;;;;;16.80;7.63;;;;;;;;;;4902216;29;20053;-71
2021/11/19 05:46:56;;;;;;;17.33;8.52;;;;;;;;;;4895816;29;20048;-71
2021/11/19 05:49:27;;;;;;;16.17;7.88;;;;;;;;;;4876742;29;20506;-70
2021/11/19 05:52:03;;;;;;;20.48;9.00;;;;;;;;;;4866611;29;20049;-70
2021/11/19 05:54:37;;;;;;;16.15;7.95;;;;;;;;;;4858185;29;20049;-70
2021/11/19 05:57:10;;;;;;;16.35;8.52;;;;;;;;;;4895387;29;20172;-70
2021/11/19 05:59:41;;;;;;;14.80;7.63;;;;;;;;;;4895457;29;20065;-74
2021/11/19 06:02:17;;;;;;;15.88;8.70;;;;;;;;;;4881170;29;20061;-72
2021/11/19 06:05:11;;;;;;;12.32;7.28;;;;;;;;;;4894746;29;20083;-73
2021/11/19 06:07:52;;;;;;;16.33;8.95;;;;;;;;;;4895006;29;20055;-73
2021/11/19 06:10:28;;;;;;;22.02;10.15;;;;;;;;;;4891344;29;20053;-73
2021/11/19 06:13:06;;;;;;;18.20;10.73;;;;;;;;;;4876135;29;20058;-74
2021/11/19 06:15:44;;;;;;;16.52;9.27;;;;;;;;;;4875957;29;20053;-73
2021/11/19 06:18:28;;;;;;;16.17;9.38;;;;;;;;;;4886274;29;20056;-72
2021/11/19 06:21:09;;;;;;;25.00;10.18;;;;;;;;;;4895179;29;20430;-73
2021/11/19 06:23:51;;;;;;;20.30;10.52;;;;;;;;;;4910309;29;20056;-73
2021/11/19 06:26:26;;;;;;;23.42;10.07;;;;;;;;;;4913550;29;20517;-73
2021/11/19 06:29:05;;;;;;;19.00;10.25;;;;;;;;;;4872688;29;20052;-72
2021/11/19 06:31:42;;;;;;;16.77;9.43;;;;;;;;;;4876015;29;20053;-74
2021/11/19 06:34:13;;;;;;;20.90;11.55;;;;;;;;;;4885233;29;20050;-72
2021/11/19 06:36:45;;;;;;;20.38;10.07;;;;;;;;;;4906543;29;20064;-73
2021/11/19 06:39:55;;;;;;;20.75;9.07;;;;;;;;;;4928000;29;20048;-72
2021/11/19 06:42:48;;;;;;;19.30;10.05;;;;;;;;;;4932531;29;20060;-73
2021/11/19 06:45:38;;;;;;;20.48;10.23;;;;;;;;;;4913600;29;20063;-72
2021/11/19 06:48:18;;;;;;;18.83;9.98;;;;;;;;;;4890915;29;20056;-73
2021/11/19 06:51:23;;;;;;;19.83;10.13;;;;;;;;;;4864709;29;20527;-73
2021/11/19 06:54:16;;;;;;;17.13;9.32;;;;;;;;;;4838572;29;20057;-72
2021/11/19 06:56:56;;;;;;;22.98;10.20;;;;;;;;;;4838904;29;20478;-72
2021/11/19 06:59:35;;;;;;;18.83;8.45;;;;;;;;;;4856885;29;20049;-74
2021/11/19 07:02:08;;;;;;;18.33;8.38;;;;;;;;;;4841739;29;20061;-73
2021/11/19 07:04:39;;;;;;;19.83;8.60;;;;;;;;;;4833733;29;20065;-72
2021/11/19 07:07:10;;;;;;;16.48;8.82;;;;;;;;;;4838413;29;20062;-73
2021/11/19 07:09:42;;;;;;;16.67;8.15;;;;;;;;;;4845011;29;20054;-73
2021/11/19 07:12:16;;;;;;;17.80;8.80;;;;;;;;;;4826678;29;20054;-73
2021/11/19 07:14:58;;;;;;;20.02;9.02;;;;;;;;;;4851476;29;20049;-73
2021/11/19 07:17:29;;;;;;;17.15;9.15;;;;;;;;;;4842159;29;20057;-74
2021/11/19 07:20:01;;;;;;;16.35;8.93;;;;;;;;;;4875072;29;20460;-73
2021/11/19 07:22:33;;;;;;;18.20;8.55;;;;;;;;;;4832216;29;20131;-73
2021/11/19 07:25:11;;;;;;;16.77;8.50;;;;;;;;;;4820028;29;20511;-74
2021/11/19 07:27:43;;;;;;;16.35;7.65;;;;;;;;;;4820012;29;20061;-73
2021/11/19 07:30:19;;;;;;;15.90;7.07;;;;;;;;;;4838207;29;20054;-74
2021/11/19 07:33:16;;;;;;;13.10;6.65;;;;;;;;;;4801559;29;20051;-72
2021/11/19 07:36:10;;;;;;;12.73;6.43;;;;;;;;;;4820461;29;20065;-75
2021/11/19 07:39:06;;;;;;;14.75;6.97;;;;;;;;;;4809520;29;20057;-75
2021/11/19 07:41:57;;;;;;;10.38;5.60;;;;;;;;;;4820042;29;20153;-75
2021/11/19 07:44:51;;;;;;;10.30;5.93;;;;;;;;;;4838059;29;20066;-76
2021/11/19 07:47:46;;;;;;;12.25;5.53;;;;;;;;;;4825697;29;20065;-75
2021/11/19 07:50:29;;;;;;;12.57;5.85;;;;;;;;;;4819719;29;20062;-75
2021/11/19 07:53:16;;;;;;;11.13;5.50;;;;;;;;;;4814660;29;20059;-74
2021/11/19 07:56:02;;;;;;;11.05;5.18;;;;;;;;;;4794784;29;20059;-75
2021/11/19 07:58:46;;;;;;;16.38;5.97;;;;;;;;;;4784351;29;20063;-75
2021/11/19 08:01:30;;;;;;;13.73;6.65;;;;;;;;;;4801644;29;20069;-74
2021/11/19 08:04:15;;;;;;;12.60;5.63;;;;;;;;;;4808220;29;20085;-74
2021/11/19 08:07:04;;;;;;;11.60;6.07;;;;;;;;;;4801330;29;20067;-74
2021/11/19 08:09:50;;;;;;;15.57;5.43;;;;;;;;;;4802147;29;20058;-74
2021/11/19 08:12:40;;;;;;;10.05;4.75;;;;;;;;;;4805452;29;20427;-73
2021/11/19 08:15:24;;;;;;;9.57;5.00;;;;;;;;;;4819171;29;20046;-74
2021/11/19 08:17:57;;;;;;;12.07;5.13;;;;;;;;;;4821307;29;20125;-73
2021/11/19 08:20:38;;;;;;;12.10;5.45;;;;;;;;;;4837916;29;20061;-73
2021/11/19 08:23:18;;;;;;;10.90;4.90;;;;;;;;;;4890574;29;20071;-73
2021/11/19 08:25:49;;;;;;;15.65;5.88;;;;;;;;;;4859586;29;20079;-73
2021/11/19 08:28:37;;;;;;;11.73;4.97;;;;;;;;;;4877550;29;20052;-73
2021/11/19 08:31:11;;;;;;;10.48;5.20;;;;;;;;;;4896618;29;20052;-74
2021/11/19 08:33:41;;;;;;;11.68;5.32;;;;;;;;;;4874398;29;20057;-73
2021/11/19 08:36:13;;;;;;;9.77;4.68;;;;;;;;;;4874707;29;20448;-72
2021/11/19 08:38:47;;;;;;;8.55;4.47;;;;;;;;;;4844345;29;20053;-73
2021/11/19 08:41:18;;;;;;;10.15;4.63;;;;;;;;;;4828337;29;20053;-73
2021/11/19 08:43:51;;;;;;;10.77;4.97;;;;;;;;;;4874791;29;20053;-72
2021/11/19 08:46:33;;;;;;;9.48;4.90;;;;;;;;;;4892864;29;20049;-73
2021/11/19 08:49:07;;;;;;;9.80;4.70;;;;;;;;;;4892880;29;20168;-73
2021/11/19 08:51:39;;;;;;;10.68;4.50;;;;;;;;;;4892813;29;20445;-72
2021/11/19 08:54:11;;;;;;;11.65;5.47;;;;;;;;;;4893340;29;20060;-73
2021/11/19 08:56:46;;;;;;;10.88;5.10;;;;;;;;;;4893143;29;20505;-73
2021/11/19 08:59:18;;;;;;;10.57;5.32;;;;;;;;;;4862040;29;20060;-73
2021/11/19 09:01:54;;;;;;;8.75;4.55;;;;;;;;;;4893436;29;20064;-73
2021/11/19 09:04:27;;;;;;;9.68;4.72;;;;;;;;;;4896072;29;20067;-72
2021/11/19 09:06:58;;;;;;;9.38;4.72;;;;;;;;;;4915078;29;20052;-72
2021/11/19 09:09:31;;;;;;;10.70;5.03;;;;;;;;;;4915589;29;20056;-74
2021/11/19 09:12:02;;;;;;;10.45;4.97;;;;;;;;;;4888309;29;20056;-73
2021/11/19 09:14:32;;;;;;;8.45;4.57;;;;;;;;;;4896111;29;20065;-72
2021/11/19 09:17:33;;;;;;;12.27;5.30;;;;;;;;;;4896806;29;20060;-72
2021/11/19 09:20:39;;;;;;;10.23;4.63;;;;;;;;;;4897195;29;20065;-73
2021/11/19 09:23:15;;;;;;;9.45;4.47;;;;;;;;;;4933765;29;20555;-73
2021/11/19 09:25:48;;;;;;;10.32;5.45;;;;;;;;;;4937912;28;20543;-73
2021/11/19 09:28:22;;;;;;;10.50;5.30;;;;;;;;;;4972604;28;20426;-73
2021/11/19 09:30:56;;;;;;;11.55;5.05;;;;;;;;;;5011319;28;20041;-73
2021/11/19 09:33:28;;;;;;;11.27;5.80;;;;;;;;;;4972013;28;20062;-73
2021/11/19 09:35:59;;;;;;;9.70;5.10;;;;;;;;;;4917595;29;20054;-73
2021/11/19 09:38:30;;;;;;;11.32;5.25;;;;;;;;;;4952850;29;20062;-73
2021/11/19 09:41:13;;;;;;;10.20;5.43;;;;;;;;;;4955096;28;20055;-74
2021/11/19 09:43:43;;;;;;;40.00;18.27;;;;;;;;;;4966980;28;21070;-73
2021/11/19 09:46:46;;;;;;;18.80;9.90;;;;;;;;;;4949329;29;20063;-72
2021/11/19 09:49:42;;;;;;;12.27;6.05;;;;;;;;;;4908122;29;20089;-73
2021/11/19 09:52:56;;;;;;;11.18;5.97;;;;;;;;;;4952650;29;20063;-73
2021/11/19 09:55:44;;;;;;;12.80;5.35;;;;;;;;;;4876360;29;20060;-73
2021/11/19 09:58:40;;;;;;;10.85;5.50;;;;;;;;;;4876798;29;20053;-73
2021/11/19 10:01:32;;;;;;;10.95;4.55;;;;;;;;;;4864614;29;20435;-73
2021/11/19 10:04:20;;;;;;;12.23;6.18;;;;;;;;;;4858242;29;20054;-72
2021/11/19 10:06:55;;;;;;;9.48;5.03;;;;;;;;;;4876500;29;20061;-72
2021/11/19 10:09:39;;;;;;;9.32;4.82;;;;;;;;;;4892619;29;20505;-72
2021/11/19 10:12:23;;;;;;;9.85;5.30;;;;;;;;;;4848982;29;20064;-72
2021/11/19 10:15:19;;;;;;;9.75;5.30;;;;;;;;;;4864082;29;20064;-73
2021/11/19 10:18:02;;;;;;;10.80;4.68;;;;;;;;;;4858303;29;20503;-74
2021/11/19 10:20:51;;;;;;;12.60;8.02;;;;;;;;;;4860515;29;20057;-72
2021/11/19 10:23:28;;;;;;;10.43;5.65;;;;;;;;;;4876402;29;20536;-73
2021/11/19 10:26:21;;;;;;;8.68;4.65;;;;;;;;;;4876178;29;20064;-72
2021/11/19 10:29:06;;;;;;;10.50;4.10;;;;;;;;;;4876599;29;20437;-72
2021/11/19 10:31:38;;;;;;;8.73;4.22;;;;;;;;;;4880097;29;20052;-73
2021/11/19 10:34:15;;;;;;;11.38;4.75;;;;;;;;;;4912648;29;20096;-72
2021/11/19 10:37:00;;;;;;;10.35;4.53;;;;;;;;;;4946848;29;20047;-72
2021/11/19 10:40:11;;;;;;;7.57;4.22;;;;;;;;;;4952349;29;20078;-72
2021/11/19 10:42:58;;;;;;;8.43;4.38;;;;;;;;;;4951898;29;20051;-72
2021/11/19 10:45:53;;;;;;;8.18;4.60;;;;;;;;;;4986426;28;20058;-72
2021/11/19 10:48:45;;;;;;;7.18;3.78;;;;;;;;;;4990450;28;20058;-73
2021/11/19 10:51:36;;;;;;;12.40;5.60;;;;;;;;;;4990491;28;20057;-72
2021/11/19 10:54:09;;;;;;;7.78;4.00;;;;;;;;;;4989921;28;20051;-73
2021/11/19 10:57:00;;;;;;;7.53;3.95;;;;;;;;;;4990390;28;21237;-72
2021/11/19 10:59:38;;;;;;;8.13;4.07;;;;;;;;;;5006051;28;20062;-72
2021/11/19 11:02:12;;;;;;;6.97;3.28;;;;;;;;;;5029111;28;20064;-72
2021/11/19 11:04:57;;;;;;;8.50;3.47;;;;;;;;;;4996105;28;20049;-74
2021/11/19 11:07:33;;;;;;;;;;;;;;;;;;5029992;28;20400;-72
2021/11/19 11:10:14;;;;;;;6.25;3.22;;;;;;;;;;5025656;28;20313;-72
2021/11/19 11:12:52;;;;;;;9.73;4.47;;;;;;;;;;5013090;28;20045;-72
2021/11/19 11:15:34;;;;;;;7.97;3.70;;;;;;;;;;5029261;28;20099;-73
2021/11/19 11:18:12;;;;;;;6.80;3.50;;;;;;;;;;5029370;28;20064;-72
2021/11/19 11:20:57;;;;;;;6.32;3.03;;;;;;;;;;5009297;28;20045;-72
2021/11/19 11:23:38;;;;;;;6.15;3.25;;;;;;;;;;4993582;28;20058;-71
2021/11/19 11:26:19;;;;;;;7.35;3.40;;;;;;;;;;5008670;28;20089;-71
2021/11/19 11:28:54;;;;;;;5.10;2.78;;;;;;;;;;5009276;28;20054;-71
2021/11/19 11:31:47;;;;;;;6.32;2.92;;;;;;;;;;4985550;28;20569;-72
2021/11/19 11:34:29;;;;;;;7.68;3.28;;;;;;;;;;4989184;28;20530;-69
2021/11/19 11:37:25;;;;;;;6.90;3.20;;;;;;;;;;4981467;28;20546;-71
2021/11/19 11:40:25;;;;;;;7.93;3.13;;;;;;;;;;4912427;29;20421;-72
2021/11/19 11:43:36;;;;;;;7.82;3.33;;;;;;;;;;4856481;29;20467;-71
2021/11/19 11:46:59;;;;;;;5.53;2.80;;;;;;;;;;4730459;30;20072;-70
2021/11/19 11:49:54;;;;;;;7.35;2.80;;;;;;;;;;4664825;30;20061;-71
2021/11/19 11:52:23;;;;;;;7.28;2.88;;;;;;;;;;4692616;30;20062;-71
2021/11/19 11:55:21;;;;;;;7.50;3.38;;;;;;;;;;4678388;30;20065;-71
2021/11/19 11:57:57;;;;;;;6.20;3.13;;;;;;;;;;4678441;30;20053;-71
2021/11/19 12:00:52;;;;;;;7.50;3.00;;;;;;;;;;4695605;30;20058;-71
2021/11/19 12:03:24;;;;;;;12.10;3.42;;;;;;;;;;4681115;30;20054;-71
2021/11/19 12:06:13;;;;;;;7.03;2.75;;;;;;;;;;4681299;30;20412;-71
2021/11/19 12:09:05;;;;;;;4.38;2.40;;;;;;;;;;4681578;30;20053;-72
2021/11/19 12:11:50;;;;;;;;;;;;;;;;;;4670397;30;20064;-71
2021/11/19 12:14:25;;;;;;;5.68;2.50;;;;;;;;;;4681485;30;19927;-70
2021/11/19 12:17:14;;;;;;;6.55;2.78;;;;;;;;;;4702968;30;20423;-71
2021/11/19 12:19:43;;;;;;;4.40;2.65;;;;;;;;;;4720448;30;20060;-72
2021/11/19 12:22:28;;;;;;;4.72;2.45;;;;;;;;;;4744862;29;20066;-71
2021/11/19 12:25:23;;;;;;;4.78;2.58;;;;;;;;;;4950689;28;20063;-70
2021/11/19 12:27:57;;;;;;;6.82;2.92;;;;;;;;;;4950898;29;20624;-73
2021/11/19 12:30:42;;;;;;;5.32;2.95;;;;;;;;;;4934922;29;20443;-70
2021/11/19 12:33:28;;;;;;;5.00;2.90;;;;;;;;;;4950642;29;21249;-70
2021/11/19 12:36:31;;;;;;;10.43;3.05;;;;;;;;;;4915346;29;20527;-70
2021/11/19 12:39:10;;;;;;;4.85;2.75;;;;;;;;;;4879483;29;20529;-71
2021/11/19 12:42:10;;;;;;;5.00;2.50;;;;;;;;;;4896867;29;20044;-70
2021/11/19 12:45:07;;;;;;;8.02;2.58;;;;;;;;;;4778074;29;20081;-70
2021/11/19 12:48:37;;;;;;;4.70;2.50;;;;;;;;;;4791153;29;20069;-71
2021/11/19 12:51:14;;;;;;;;;;;;;;;;;;4823221;29;20066;-71
2021/11/19 12:54:09;;;;;;;4.30;2.33;;;;;;;;;;4786846;30;19932;-70
2021/11/19 12:56:46;;;;;;;4.03;1.83;;;;;;;;;;4753911;30;20402;-71
2021/11/19 12:59:39;;;;;;;4.95;2.65;;;;;;;;;;4754388;30;20059;-70
2021/11/19 13:02:24;;;;;;;4.95;2.55;;;;;;;;;;4768535;30;20064;-69
2021/11/19 13:05:07;;;;;;;5.30;2.33;;;;;;;;;;4768206;30;20071;-71
2021/11/19 13:07:44;;;;;;;12.07;2.78;;;;;;;;;;4750363;29;20064;-70
2021/11/19 13:10:16;;;;;;;48.65;9.20;;;;;;;;;;4750763;30;20106;-70
2021/11/19 13:13:03;;;;;;;24.02;4.35;;;;;;;;;;4750820;30;20056;-70
2021/11/19 13:15:38;;;;;;;4.15;1.80;;;;;;;;;;4759429;30;20059;-70
2021/11/19 13:18:17;;;;;;;4.28;1.80;;;;;;;;;;4768751;30;20067;-70
2021/11/19 13:20:57;;;;;;;6.95;2.03;;;;;;;;;;4788799;29;20070;-69
2021/11/19 13:23:30;;;;;;;24.70;14.82;;;;;;;;;;4822806;29;20058;-70
2021/11/19 13:26:12;;;;;;;5.10;2.35;;;;;;;;;;4896147;29;20182;-69
2021/11/19 13:28:49;;;;;;;4.03;1.83;;;;;;;;;;4896274;29;20161;-69
2021/11/19 13:31:23;;;;;;;4.72;1.90;;;;;;;;;;4924169;29;20062;-69
2021/11/19 13:34:06;;;;;;;5.20;1.83;;;;;;;;;;4949360;28;20053;-69
2021/11/19 13:37:10;;;;;;;3.15;1.90;;;;;;;;;;4975839;28;20436;-69
2021/11/19 13:39:41;;;;;;;5.28;1.77;;;;;;;;;;4991798;28;20153;-69
2021/11/19 13:42:13;;;;;;;3.25;1.77;;;;;;;;;;4943975;28;20466;-69
2021/11/19 13:45:04;;;;;;;4.45;1.70;;;;;;;;;;5002616;28;20058;-67
2021/11/19 13:47:39;;;;;;;;;;;;;;;;;;4991769;28;20066;-68
2021/11/19 13:50:36;;;;;;;9.38;2.85;;;;;;;;;;4943587;28;19921;-69
2021/11/19 13:53:23;;;;;;;5.55;2.03;;;;;;;;;;4981045;28;20157;-68
2021/11/19 13:55:54;;;;;;;5.68;1.92;;;;;;;;;;4952193;29;20047;-69
2021/11/19 13:58:55;;;;;;;6.80;2.20;;;;;;;;;;4952502;29;20059;-68
2021/11/19 14:01:40;;;;;;;4.45;1.92;;;;;;;;;;4952567;29;20055;-69
2021/11/19 14:04:31;;;;;;;5.50;1.65;;;;;;;;;;4952478;29;20078;-74
2021/11/19 14:07:30;;;;;;;4.60;2.03;;;;;;;;;;4952325;29;20066;-69
2021/11/19 14:10:12;;;;;;;4.35;1.60;;;;;;;;;;4952681;29;20059;-68
2021/11/19 14:13:05;;;;;;;2.90;1.35;;;;;;;;;;4936667;29;20136;-68
2021/11/19 14:15:39;;;;;;;3.65;1.48;;;;;;;;;;4971616;28;20054;-67
2021/11/19 14:18:26;;;;;;;5.38;1.20;;;;;;;;;;4928944;28;20058;-69
2021/11/19 14:24:17;;;;;;;4.07;1.70;;;;;;;;;;4952544;29;20063;-65
2021/11/19 14:27:19;;;;;;;4.97;1.65;;;;;;;;;;4948527;29;20056;-66
2021/11/19 14:30:18;;;;;;;2.55;1.13;;;;;;;;;;4919188;29;20048;-67
2021/11/19 14:33:04;;;;;;;3.15;1.15;;;;;;;;;;4897571;29;20592;-65
2021/11/19 14:35:48;;;;;;;2.72;1.10;;;;;;;;;;4904608;29;20060;-64
2021/11/19 14:38:45;;;;;;;2.95;1.30;;;;;;;;;;4876166;29;20057;-65
2021/11/19 14:41:18;;;;;;;3.10;1.55;;;;;;;;;;4913378;29;20432;-66
2021/11/19 14:43:59;;;;;;;2.45;1.33;;;;;;;;;;4913870;29;20052;-66
2021/11/19 14:46:37;;;;;;;2.95;1.17;;;;;;;;;;4913526;29;20060;-66
2021/11/19 14:49:23;;;;;;;4.07;1.20;;;;;;;;;;4913984;29;20108;-64
2021/11/19 14:52:07;;;;;;;3.47;1.27;;;;;;;;;;4894296;29;20065;-66
2021/11/19 14:54:42;;;;;;;3.72;1.20;;;;;;;;;;4897812;29;20642;-64
2021/11/19 14:57:12;;;;;;;3.50;0.80;;;;;;;;;;4913330;29;20080;-66
2021/11/19 15:00:06;;;;;;;2.00;1.00;;;;;;;;;;4930854;29;20420;-63
2021/11/19 15:03:00;;;;;;;2.20;1.13;;;;;;;;;;4932641;29;20052;-63
2021/11/19 15:05:40;;;;;;;3.42;1.13;;;;;;;;;;4931811;29;20054;-65
2021/11/19 15:08:31;;;;;;;4.38;1.45;;;;;;;;;;4976959;28;20532;-66
2021/11/19 15:11:22;;;;;;;3.08;1.55;;;;;;;;;;4990011;28;20433;-66
2021/11/19 15:14:21;;;;;;;2.58;1.00;;;;;;;;;;4951148;29;20055;-65
2021/11/19 15:16:55;;;;;;;3.67;1.25;;;;;;;;;;4856487;29;20062;-65
2021/11/19 15:19:37;;;;;;;2.88;1.13;;;;;;;;;;4838384;29;20065;-65
2021/11/19 15:22:38;;;;;;;2.72;0.95;;;;;;;;;;4838465;29;20092;-64
2021/11/19 15:25:33;;;;;;;3.30;1.02;;;;;;;;;;4838401;29;20072;-65
2021/11/19 15:28:12;;;;;;;2.53;1.25;;;;;;;;;;4838533;29;20066;-64
2021/11/19 15:31:06;;;;;;;2.47;1.13;;;;;;;;;;4856357;29;20053;-65
2021/11/19 15:34:09;;;;;;;1.83;1.00;;;;;;;;;;4823386;29;20050;-67
2021/11/19 15:37:00;;;;;;;3.28;0.85;;;;;;;;;;4820088;29;20064;-65
2021/11/19 15:39:32;;;;;;;6.25;0.80;;;;;;;;;;4786542;29;20162;-62
2021/11/19 15:42:04;;;;;;;3.35;0.80;;;;;;;;;;4801632;29;20070;-67
2021/11/19 15:44:38;;;;;;;1.73;1.10;;;;;;;;;;4801809;29;20063;-65
2021/11/19 15:47:10;;;;;;;3.72;1.30;;;;;;;;;;4801913;29;20508;-66
2021/11/19 15:49:46;;;;;;;2.92;0.93;;;;;;;;;;4783539;30;20066;-68
2021/11/19 15:52:24;;;;;;;3.35;0.70;;;;;;;;;;4798656;29;20058;-65
2021/11/19 15:55:15;;;;;;;1.52;0.80;;;;;;;;;;4863705;29;20082;-69
2021/11/19 15:57:49;;;;;;;5.35;0.93;;;;;;;;;;4889359;29;20056;-66